Latest Weather Observations for Tasman Island

IDT60901

Issued at 5:31 am EST Thursday 5 May 2016 (issued every 10 minutes, with the page automatically refreshed every 10 minutes)

About weather observations | Map of Hobart area stations | Latest observations for Hobart area | Other Formats
Station Details ID: 094155 Name: TASMAN ISLAND Lat: -43.24 Lon: 148.00 Height: 240.0 m
Data from the previous 72 hours. | See also: Recent months at Tasman Island
Date/Time
EST
Tmp

°C
App
Tmp
°C
Dew
Point
°C
Rel
Hum
%
Delta-T

°C
Wind Press
QNH
hPa
Press
MSL
hPa
Rain
since
9 am
mm
Dir
 
Spd
km/h
Gust
km/h
Spd
kts
Gust
kts
05/05:30am 13.6 5.8 6.7 63 3.4 NNW 37 57 20 31 1005.8 1005.8 0.0
05/05:04am 13.3 6.4 6.6 64 3.3 NNW 32 52 17 28 1005.3 1005.4 0.0
05/05:00am 13.7 6.3 6.6 62 3.5 NNW 35 52 19 28 1005.3 1005.4 0.0
05/04:30am 13.5 6.1 6.6 63 3.4 NNW 35 56 19 30 1004.8 1004.9 0.0
05/04:00am 13.8 4.5 5.9 59 3.8 NNW 44 72 24 39 1004.6 1004.7 0.0
05/03:30am 13.1 4.9 6.5 64 3.2 NNW 39 59 21 32 1004.5 1004.6 0.0
05/03:02am 13.0 3.8 6.4 64 3.2 NNW 44 65 24 35 1004.3 1004.4 0.0
05/03:00am 13.2 3.6 6.3 63 3.3 NNW 46 65 25 35 1004.1 1004.2 0.0
05/02:30am 12.7 3.5 6.5 66 3.0 NNW 44 67 24 36 1003.9 1004.0 0.0
05/02:00am 12.7 3.1 6.3 65 3.1 N 46 74 25 40 1004.4 1004.5 0.0
05/01:41am 12.4 3.2 6.2 66 3.0 N 44 63 24 34 1004.5 1004.6 0.0
05/01:30am 12.3 2.7 6.4 67 2.8 N 46 61 25 33 1004.6 1004.7 0.0
05/01:00am 12.4 3.3 5.8 64 3.1 NNW 43 63 23 34 1004.7 1004.8 0.0
05/12:30am 12.2 2.5 5.6 64 3.1 N 46 67 25 36 1004.9 1005.0 0.0
05/12:00am 11.9 1.8 5.5 65 3.0 N 48 70 26 38 1004.9 1005.0 0.0
 
Date/Time
EST
Tmp

°C
App
Tmp
°C
Dew
Point
°C
Rel
Hum
%
Delta-T

°C
Wind Press
QNH
hPa
Press
MSL
hPa
Rain
since
9 am
mm
Dir
 
Spd
km/h
Gust
km/h
Spd
kts
Gust
kts
04/11:30pm 11.8 2.3 5.0 63 3.2 NNW 44 69 24 37 1005.1 1005.2 0.0
04/11:00pm 11.5 2.8 5.8 68 2.7 N 41 67 22 36 1005.3 1005.4 0.0
04/10:30pm 11.3 4.0 5.4 67 2.8 NNW 33 61 18 33 1005.6 1005.7 0.0
04/10:00pm 11.6 5.0 4.1 60 3.4 NNW 28 50 15 27 1005.6 1005.7 0.0
04/09:32pm 11.3 4.3 4.1 61 3.3 NNW 30 50 16 27 1006.1 1006.1 0.0
04/09:30pm 11.5 4.1 4.0 60 3.4 NNW 32 48 17 26 1006.2 1006.2 0.0
04/09:00pm 11.4 2.2 3.4 58 3.6 NNW 41 69 22 37 1006.0 1006.0 0.0
04/08:30pm 11.2 2.3 3.0 57 3.6 NNW 39 61 21 33 1005.9 1005.9 0.0
04/08:04pm 11.3 3.7 2.9 56 3.7 NNW 32 54 17 29 1005.8 1005.8 0.0
04/08:00pm 11.3 3.7 2.6 55 3.8 NNW 32 46 17 25 1005.8 1005.8 0.0
04/07:30pm 11.3 1.9 2.6 55 3.8 NW 41 61 22 33 1005.8 1005.8 0.0
04/07:06pm 11.1 3.5 2.7 56 3.7 NNW 32 52 17 28 1006.2 1006.2 0.0
04/07:00pm 11.2 3.5 2.5 55 3.8 NNW 32 46 17 25 1006.3 1006.3 0.0
04/06:39pm 11.1 3.3 2.7 56 3.7 NNW 33 52 18 28 1006.1 1006.1 0.0
04/06:30pm 11.3 2.6 2.3 54 3.9 NNW 37 54 20 29 1005.9 1005.9 0.0
04/06:01pm 11.2 1.3 2.5 55 3.8 NW 44 63 24 34 1005.8 1005.8 0.0
04/06:00pm 11.2 0.9 2.5 55 3.8 NW 46 63 25 34 1005.8 1005.8 0.0
04/05:48pm 11.1 3.5 2.7 56 3.7 NW 32 54 17 29 1005.8 1005.8 0.0
04/05:30pm 10.9 5.2 3.0 58 3.5 NNW 22 41 12 22 1006.0 1006.0 0.0
04/05:00pm 10.9 3.3 2.7 57 3.6 NW 32 46 17 25 1005.5 1005.6 0.0
04/04:30pm 11.3 4.5 2.9 56 3.7 NW 28 43 15 23 1005.5 1005.6 0.0
04/04:19pm 11.4 4.6 2.9 56 3.8 NW 28 46 15 25 1005.5 1005.6 0.0
04/04:00pm 11.6 4.8 2.9 55 3.9 NW 28 39 15 21 1005.6 1005.7 0.0
04/03:35pm 11.8 4.5 2.5 53 4.1 NW 30 50 16 27 1005.6 1005.7 0.0
04/03:30pm 11.9 5.1 3.2 55 3.9 NW 28 44 15 24 1005.5 1005.6 0.0
04/03:00pm 11.0 5.3 2.6 56 3.7 NNW 22 35 12 19 1005.5 1005.6 0.0
04/02:30pm 10.9 3.7 3.2 59 3.4 NNW 30 44 16 24 1005.6 1005.7 0.0
04/02:20pm 10.8 4.0 3.1 59 3.4 NW 28 50 15 27 1005.5 1005.6 0.0
04/02:00pm 12.4 6.8 3.6 55 4.0 NNW 22 43 12 23 1005.5 1005.6 0.0
04/01:30pm 11.9 4.4 3.2 55 3.9 NNW 32 44 17 24 1005.4 1005.5 0.0
04/01:00pm 11.7 5.2 2.7 54 4.0 NW 26 39 14 21 1005.5 1005.6 0.0
04/12:30pm 11.4 4.5 2.4 54 3.9 NW 28 43 15 23 1005.5 1005.6 0.0
04/12:00pm 11.5 5.7 2.3 53 4.0 NW 22 33 12 18 1005.9 1005.9 0.0
04/11:30am 9.9 3.3 2.3 59 3.3 NW 26 39 14 21 1006.2 1006.2 0.0
04/11:00am 9.8 2.5 2.2 59 3.3 NW 30 50 16 27 1005.2 1005.3 0.0
04/10:33am 9.4 2.6 2.9 64 2.8 NW 28 50 15 27 1005.1 1005.2 0.0
04/10:30am 9.3 2.8 2.9 64 2.8 NW 26 50 14 27 1005.0 1005.1 0.0
04/10:00am 9.1 2.0 3.3 67 2.5 NW 30 50 16 27 1004.6 1004.7 0.0
04/09:52am 8.8 1.9 2.8 66 2.6 NW 28 59 15 32 1004.5 1004.6 0.0
04/09:30am 8.9 4.3 3.5 69 2.4 WNW 17 43 9 23 1004.4 1004.5 0.0
04/09:24am 8.5 2.1 3.1 69 2.3 WNW 26 46 14 25 1004.2 1004.3 0.0
04/09:00am 8.1 -0.5 2.6 68 2.4 NW 37 56 20 30 1003.7 1003.8 2.4
04/08:30am 7.9 -0.2 3.2 72 2.0 WNW 35 57 19 31 1003.5 1003.6 2.4
04/08:00am 7.2 -2.6 2.1 70 2.1 WNW 43 61 23 33 1003.2 1003.3 2.4
04/07:30am 6.8 -0.5 2.5 74 1.8 WNW 30 54 16 29 1003.0 1003.0 2.4
04/07:00am 6.8 -0.1 2.7 75 1.7 WNW 28 56 15 30 1002.3 1002.3 2.4
04/06:31am 6.7 -3.1 2.4 74 1.8 NW 43 63 23 34 1001.4 1001.4 2.4
04/06:30am 6.7 -3.1 2.2 73 1.9 NW 43 61 23 33 1001.2 1001.3 2.4
04/06:03am 6.6 -2.8 2.3 74 1.8 WNW 41 59 22 32 1000.9 1001.0 2.4
04/06:00am 6.6 -3.2 2.5 75 1.7 NW 43 59 23 32 1000.9 1001.0 2.4
04/05:33am 7.0 0.1 2.7 74 1.8 NW 28 50 15 27 1000.7 1000.8 2.4
04/05:30am 6.9 0.8 2.6 74 1.8 NW 24 50 13 27 1000.6 1000.7 2.4
04/05:00am 6.8 -0.1 2.5 74 1.8 WNW 28 52 15 28 999.8 999.9 2.4
04/04:33am 6.9 -0.1 2.0 71 2.0 NW 28 59 15 32 999.2 999.2 2.4
04/04:30am 6.7 0.5 2.2 73 1.9 WNW 24 59 13 32 999.2 999.2 2.4
04/04:00am 6.5 -3.4 1.8 72 1.9 NW 43 63 23 34 998.1 998.1 2.4
04/03:30am 6.7 -2.7 2.2 73 1.9 NW 41 63 22 34 997.3 997.3 2.4
04/03:06am 6.5 -0.4 2.6 76 1.6 WNW 28 54 15 29 997.1 997.1 2.4
04/03:00am 6.5 0.0 2.4 75 1.7 NW 26 54 14 29 996.9 997.0 2.4
04/02:30am 6.8 -1.4 2.5 74 1.8 NW 35 63 19 34 996.2 996.3 2.4
04/02:00am 6.7 -0.9 2.6 75 1.7 NW 32 70 17 38 996.0 996.0 2.4
04/01:39am 6.6 -0.2 2.9 77 1.6 NW 28 63 15 34 995.8 995.8 2.4
04/01:30am 6.4 0.3 2.7 77 1.6 WNW 24 44 13 24 995.8 995.8 2.4
04/01:00am 6.7 -0.6 2.6 75 1.7 NW 30 61 16 33 995.5 995.5 2.4
04/12:30am 7.0 -5.9 2.1 71 2.0 NW 59 102 32 55 994.3 994.3 2.4
04/12:00am 6.6 -8.1 2.5 75 1.7 NW 69 93 37 50 993.7 993.7 2.4
 
Date/Time
EST
Tmp

°C
App
Tmp
°C
Dew
Point
°C
Rel
Hum
%
Delta-T

°C
Wind Press
QNH
hPa
Press
MSL
hPa
Rain
since
9 am
mm
Dir
 
Spd
km/h
Gust
km/h
Spd
kts
Gust
kts
03/11:44pm 6.8 -2.9 2.7 75 1.7 NW 43 85 23 46 993.6 993.6 2.4
03/11:30pm 7.3 -2.1 2.4 71 2.1 NW 41 78 22 42 993.6 993.6 2.4
03/11:12pm 7.1 -5.1 2.6 73 1.9 WNW 56 85 30 46 993.7 993.7 2.4
03/11:11pm 7.2 -5.2 2.7 73 1.9 WNW 57 85 31 46 993.7 993.7 2.4
03/11:03pm 7.2 -4.4 1.9 69 2.2 WNW 52 85 28 46 993.4 993.4 2.4
03/11:00pm 7.2 -3.1 2.5 72 2.0 NW 46 80 25 43 993.4 993.4 2.4
03/10:30pm 7.2 -3.1 2.7 73 1.9 NW 46 78 25 42 993.5 993.5 2.4
03/10:00pm 7.3 -2.6 2.6 72 2.0 NW 44 65 24 35 993.7 993.7 2.4
03/09:30pm 7.7 -1.2 3.0 72 2.0 WNW 39 72 21 39 993.0 993.0 2.4
03/09:00pm 7.5 0.7 3.0 73 1.9 WNW 28 56 15 30 993.2 993.2 2.4
03/08:59pm 7.6 0.8 3.3 74 1.9 WNW 28 56 15 30 993.2 993.2 2.4
03/08:30pm 7.4 1.7 2.7 72 2.0 NW 22 52 12 28 992.4 992.4 2.4
03/08:00pm 7.7 0.6 3.4 74 1.9 WNW 30 72 16 39 991.4 991.4 2.4
03/07:31pm 7.6 0.8 3.3 74 1.9 WNW 28 65 15 35 990.8 990.8 2.4
03/07:30pm 7.7 1.3 3.4 74 1.9 WNW 26 61 14 33 990.7 990.7 2.4
03/07:08pm 8.3 1.6 3.8 73 2.0 WNW 28 63 15 34 990.7 990.7 2.4
03/07:00pm 8.4 3.0 4.4 76 1.8 WNW 22 63 12 34 990.6 990.6 2.4
03/06:30pm 8.1 1.2 4.7 79 1.5 NW 30 52 16 28 990.1 990.1 2.4
03/06:26pm 8.2 1.0 4.8 79 1.5 NW 32 57 17 31 990.1 990.1 2.4
03/06:22pm 8.2 1.7 4.8 79 1.5 NW 28 57 15 31 990.1 990.1 2.4
03/06:00pm 8.6 4.5 4.6 76 1.8 WNW 15 39 8 21 989.9 989.9 2.4
03/05:37pm 9.3 2.8 4.5 72 2.2 WNW 28 56 15 30 989.8 989.8 2.2
03/05:30pm 9.0 3.6 4.6 74 2.0 WNW 22 46 12 25 989.8 989.8 2.2
03/05:00pm 8.9 1.1 4.9 76 1.8 NW 35 56 19 30 987.9 987.9 2.2
03/04:40pm 8.5 2.1 5.1 79 1.5 WNW 28 50 15 27 987.6 987.6 2.2
03/04:30pm 8.2 4.3 5.5 83 1.2 SW 15 37 8 20 987.4 987.4 2.2
03/04:00pm 9.8 6.8 6.0 77 1.8 WSW 11 30 6 16 988.5 988.4 1.8
03/03:30pm 9.8 7.5 5.8 76 1.9 WNW 7 22 4 12 988.0 988.0 1.8
03/03:00pm 9.9 7.2 5.5 74 2.1 NW 9 30 5 16 987.6 987.6 1.8
03/02:30pm 9.8 6.3 5.4 74 2.0 WNW 13 30 7 16 987.9 987.9 1.8
03/02:00pm 9.6 5.7 5.4 75 2.0 WNW 15 35 8 19 987.4 987.4 1.8
03/01:30pm 10.0 7.4 6.2 77 1.8 WSW 9 37 5 20 986.7 986.7 1.8
03/01:00pm 10.2 6.7 7.1 81 1.5 WNW 15 33 8 18 987.2 987.2 1.8
03/12:30pm 9.8 6.0 7.4 85 1.2 WNW 17 37 9 20 988.4 988.3 1.8
03/12:00pm 9.4 7.5 7.5 88 0.9 ENE 7 22 4 12 988.0 988.0 1.6
03/11:30am 8.9 5.7 7.0 88 0.9 WNW 13 39 7 21 988.5 988.4 1.2
03/11:00am 9.8 6.6 6.7 81 1.5 NW 13 39 7 21 988.2 988.2 0.2
03/10:30am 10.8 7.6 6.7 76 2.0 WNW 13 37 7 20 988.0 988.0 0.2
03/10:00am 10.8 8.3 6.6 75 2.0 ENE 9 20 5 11 987.6 987.6 0.2
03/09:30am 11.2 8.6 7.9 80 1.6 WSW 11 39 6 21 987.9 987.9 0.2
03/09:00am 10.7 8.3 8.5 86 1.1 NNW 11 35 6 19 988.2 988.2 7.2
03/08:30am 11.8 10.1 9.7 87 1.1 W 9 35 5 19 987.7 987.7 7.0
03/08:00am 12.0 4.9 9.7 86 1.2 WNW 37 56 20 30 987.4 987.4 7.0
03/07:35am 12.0 6.5 10.4 90 0.8 WNW 30 50 16 27 987.0 987.0 7.0
03/07:30am 12.0 6.1 10.4 90 0.8 WNW 32 48 17 26 987.3 987.3 6.8
03/07:04am 11.9 3.9 10.6 92 0.7 WNW 43 63 23 34 987.0 987.0 6.4
03/07:00am 12.0 4.8 10.7 92 0.7 WNW 39 57 21 31 987.1 987.1 6.2
03/06:31am 12.1 7.1 11.0 93 0.6 NW 28 50 15 27 987.6 987.6 5.0
03/06:30am 12.0 7.4 10.9 93 0.6 NW 26 43 14 23 987.7 987.7 4.8
03/06:00am 11.6 8.2 10.5 93 0.6 N 19 28 10 15 987.4 987.4 4.4
03/05:30am 10.6 9.2 9.7 94 0.5 ENE 7 13 4 7 987.4 987.4 4.2
03/05:00am 10.5 8.3 9.4 93 0.6 WSW 11 19 6 10 987.8 987.8 4.2
03/04:30am 10.9 8.4 9.7 92 0.6 SW 13 20 7 11 989.0 988.9 3.4
03/04:00am 11.5 8.5 9.2 86 1.2 SSW 15 22 8 12 988.9 988.8 0.6
03/03:30am 14.7 8.5 8.0 64 3.4 NW 30 50 16 27 988.7 988.6 0.0
03/03:00am 14.9 8.1 7.5 61 3.8 NW 33 59 18 32 988.6 988.5 0.0
03/02:30am 15.3 6.3 7.1 58 4.1 NW 44 69 24 37 988.8 988.7 0.0
03/02:00am 15.1 6.2 6.9 58 4.1 NW 43 69 23 37 989.0 988.9 0.0
03/01:30am 14.9 8.0 7.2 60 3.8 NNW 33 59 18 32 989.2 989.2 0.0
03/01:19am 14.5 9.3 7.3 62 3.6 NNW 24 54 13 29 989.4 989.4 0.0
03/01:00am 14.6 9.1 7.4 62 3.6 NNW 26 63 14 34 989.5 989.5 0.0
03/12:39am 14.7 8.3 7.0 60 3.8 NNW 30 72 16 39 989.5 989.5 0.0
03/12:30am 14.5 9.3 7.3 62 3.6 NNW 24 61 13 33 989.9 989.9 0.0
03/12:05am 14.6 10.1 6.9 60 3.8 NNW 20 65 11 35 989.9 989.9 0.0
03/12:04am 14.4 9.8 6.7 60 3.8 NNW 20 65 11 35 989.9 989.9 0.0
03/12:00am 14.0 9.4 6.6 61 3.7 NNW 20 44 11 24 990.3 990.3 0.0
 
Date/Time
EST
Tmp

°C
App
Tmp
°C
Dew
Point
°C
Rel
Hum
%
Delta-T

°C
Wind Press
QNH
hPa
Press
MSL
hPa
Rain
since
9 am
mm
Dir
 
Spd
km/h
Gust
km/h
Spd
kts
Gust
kts
02/11:31pm 13.9 7.9 7.2 64 3.3 N 28 74 15 40 990.3 990.3 0.0
02/11:30pm 13.8 8.2 7.1 64 3.3 N 26 74 14 40 990.4 990.4 0.0
02/11:00pm 13.6 6.9 7.4 66 3.1 N 32 57 17 31 991.4 991.4 0.0
02/10:30pm 13.9 7.2 7.2 64 3.3 N 32 63 17 34 991.7 991.7 0.0
02/10:00pm 13.6 6.3 7.2 65 3.2 N 35 59 19 32 991.9 991.9 0.0
02/09:30pm 13.8 7.4 7.1 64 3.3 N 30 59 16 32 992.9 992.9 0.0
02/09:00pm 13.7 6.7 7.0 64 3.3 N 33 65 18 35 993.3 993.3 0.0
02/08:35pm 13.6 4.8 7.4 66 3.1 N 43 61 23 33 993.6 993.6 0.0
02/08:30pm 13.4 5.1 7.8 69 2.8 N 41 56 22 30 993.8 993.8 0.0
02/08:00pm 13.2 4.4 8.1 71 2.6 N 44 67 24 36 994.6 994.6 0.0
02/07:32pm 13.2 6.1 7.9 70 2.6 N 35 57 19 31 994.7 994.7 0.0
02/07:30pm 13.3 6.2 8.0 70 2.7 N 35 52 19 28 994.9 994.9 0.0
02/07:00pm 13.4 6.2 7.6 68 2.9 N 35 57 19 31 995.1 995.1 0.0
02/06:40pm 13.4 5.0 7.2 66 3.1 N 41 61 22 33 995.3 995.3 0.0
02/06:30pm 13.2 5.2 7.6 69 2.8 N 39 57 21 31 995.2 995.2 0.0
02/06:03pm 13.2 5.7 7.9 70 2.6 N 37 56 20 30 995.4 995.4 0.0
02/06:00pm 13.5 6.3 7.7 68 2.9 N 35 52 19 28 995.5 995.5 0.0
02/05:30pm 13.8 6.4 6.7 62 3.5 N 35 56 19 30 995.4 995.4 0.0
02/05:00pm 13.9 5.7 6.5 61 3.6 NNW 39 61 21 33 995.6 995.6 0.0
02/04:33pm 14.3 7.9 5.4 55 4.3 NNW 28 52 15 28 996.1 996.2 0.0
02/04:30pm 14.2 8.6 5.6 56 4.1 NNW 24 43 13 23 996.2 996.3 0.0
02/04:00pm 14.4 10.4 5.0 53 4.5 NNW 15 30 8 16 996.7 996.8 0.0
02/03:30pm 14.2 8.1 5.0 54 4.4 NNW 26 44 14 24 996.8 996.9 0.0
02/03:00pm 14.1 5.5 4.9 54 4.4 NW 39 57 21 31 997.4 997.4 0.0
02/02:36pm 14.5 8.1 5.0 53 4.5 NW 28 48 15 26 997.8 997.8 0.0
02/02:30pm 14.6 9.0 5.4 54 4.4 NW 24 41 13 22 997.9 997.9 0.0
02/02:00pm 14.9 8.5 5.1 52 4.7 NW 28 50 15 27 998.3 998.3 0.0
02/01:43pm 14.2 7.8 5.0 54 4.4 NNW 28 46 15 25 998.7 998.7 0.0
02/01:30pm 13.9 6.0 4.5 53 4.4 NW 35 50 19 27 998.7 998.7 0.0
02/01:10pm 14.3 7.2 5.4 55 4.3 NW 32 52 17 28 999.1 999.1 0.0
02/01:00pm 13.6 7.6 5.3 57 4.0 NW 26 46 14 25 999.2 999.2 0.0
02/12:30pm 13.4 8.6 5.8 60 3.6 NNW 20 32 11 17 999.9 1000.0 0.0
02/12:01pm 13.6 7.3 5.7 59 3.8 NNW 28 46 15 25 1000.3 1000.4 0.0
02/12:00pm 13.2 6.5 5.4 59 3.7 NNW 30 46 16 25 1000.3 1000.4 0.0
02/11:51am 13.6 7.2 5.3 57 3.9 NW 28 46 15 25 1000.6 1000.7 0.0
02/11:30am 13.1 7.5 5.5 60 3.6 NNW 24 39 13 21 1000.8 1000.9 0.0
02/11:00am 11.9 7.2 5.3 64 3.1 NNW 19 28 10 15 1001.2 1001.3 0.0
02/10:30am 10.7 4.6 4.6 66 2.8 NNW 26 39 14 21 1001.6 1001.6 0.0
02/10:07am 10.5 4.0 4.9 68 2.6 NNW 28 46 15 25 1001.6 1001.6 0.0
02/10:00am 10.4 3.1 4.5 67 2.7 NW 32 46 17 25 1001.6 1001.6 0.0
02/09:30am 9.7 3.9 4.5 70 2.3 NNW 24 35 13 19 1001.9 1001.9 0.0
02/09:00am 9.7 3.5 4.3 69 2.4 NW 26 39 14 21 1002.0 1002.0 -
02/08:30am 9.6 3.0 4.2 69 2.4 NW 28 39 15 21 1002.2 1002.2 -
02/08:00am 9.3 3.8 3.9 69 2.4 NW 22 32 12 17 1002.2 1002.2 -
02/07:30am 9.5 2.8 3.7 67 2.6 NW 28 44 15 24 1001.9 1001.9 -
02/07:14am 9.5 2.8 3.5 66 2.6 NW 28 46 15 25 1001.8 1001.8 -
02/07:00am 9.3 4.1 3.7 68 2.5 WNW 20 41 11 22 1001.6 1001.6 -
02/06:30am 9.4 2.0 3.8 68 2.5 NW 32 57 17 31 1001.4 1001.4 -
02/06:17am 9.3 1.3 3.7 68 2.5 WNW 35 54 19 29 1001.4 1001.4 -
02/06:00am 9.1 1.4 3.5 68 2.5 WNW 33 50 18 27 1001.6 1001.6 -
02/05:51am 9.4 3.1 3.8 68 2.5 WNW 26 46 14 25 1001.7 1001.7 -

Latest Capital City Observations: Canberra | Sydney | Melbourne | Brisbane | Adelaide | Perth | Hobart | Darwin

Other Formats:

Comma delimited format used in spreadsheet applications
http://www.bom.gov.au/fwo/IDT60901/IDT60901.95986.axf

JavaScript Object Notation format (JSON) in row-major order
http://www.bom.gov.au/fwo/IDT60901/IDT60901.95986.json